Time;durP1;ratioP1;P1;durP2;ratioP2;P2;SDS_P1;SDS_P2;PMS_P1;PMS_P2;Temp;Humidity;BMP_temperature;BMP_pressure;BME280_temperature;BME280_humidity;BME280_pressure;Samples;Min_cycle;Max_cycle;Signal;HPM_P1;HPM_P2
2023/07/16 00:00:19;;;;;;;11.10;3.50;;;18.40;99.90;;;;;;5049851;28;20768;-63
2023/07/16 00:02:44;;;;;;;9.55;3.13;;;18.30;99.90;;;;;;5040866;28;20467;-64
2023/07/16 00:05:10;;;;;;;11.07;3.40;;;18.30;99.90;;;;;;5034901;28;20434;-64
2023/07/16 00:07:36;;;;;;;9.43;3.30;;;18.30;99.90;;;;;;5049284;28;20426;-64
2023/07/16 00:10:02;;;;;;;10.13;3.20;;;18.20;99.90;;;;;;5050852;28;20451;-64
2023/07/16 00:12:27;;;;;;;12.55;3.38;;;18.20;99.90;;;;;;4976374;28;20430;-64
2023/07/16 00:14:55;;;;;;;10.60;3.23;;;18.10;99.90;;;;;;5055642;28;20410;-64
2023/07/16 00:17:20;;;;;;;10.43;3.20;;;18.10;99.90;;;;;;5042534;28;20827;-64
2023/07/16 00:19:46;;;;;;;10.33;3.27;;;18.10;99.90;;;;;;5045394;28;20545;-64
2023/07/16 00:22:12;;;;;;;10.17;3.10;;;18.10;99.90;;;;;;5046600;28;20416;-65
2023/07/16 00:24:37;;;;;;;9.02;3.22;;;18.00;99.90;;;;;;4975167;28;20409;-65
2023/07/16 00:27:03;;;;;;;11.80;3.40;;;18.00;99.90;;;;;;4976729;28;20438;-65
2023/07/16 00:29:29;;;;;;;11.90;3.28;;;17.90;99.90;;;;;;5036978;28;20854;-65
2023/07/16 00:31:55;;;;;;;9.98;3.30;;;17.90;99.90;;;;;;4993996;28;20425;-65
2023/07/16 00:34:20;;;;;;;12.00;3.58;;;17.90;99.90;;;;;;5044273;28;20412;-64
2023/07/16 00:36:46;;;;;;;12.50;3.27;;;17.90;99.90;;;;;;4985504;28;20608;-65
2023/07/16 00:39:12;;;;;;;11.13;3.10;;;17.90;99.90;;;;;;5044683;28;20396;-65
2023/07/16 00:41:37;;;;;;;10.00;2.90;;;17.80;99.90;;;;;;5042755;28;20413;-65
2023/07/16 00:44:03;;;;;;;11.38;3.25;;;17.80;99.90;;;;;;5028478;28;20408;-64
2023/07/16 00:46:29;;;;;;;10.48;3.25;;;17.70;99.90;;;;;;5052405;28;20439;-63
2023/07/16 00:48:55;;;;;;;10.52;3.25;;;17.70;99.90;;;;;;5038199;28;20411;-65
2023/07/16 00:51:24;;;;;;;10.90;3.22;;;17.80;99.90;;;;;;4975156;28;20769;-65
2023/07/16 00:53:50;;;;;;;8.40;3.00;;;17.80;99.90;;;;;;4985007;28;20788;-64
2023/07/16 00:56:19;;;;;;;12.90;3.60;;;17.70;99.90;;;;;;4982021;28;20420;-64
2023/07/16 00:58:45;;;;;;;8.57;3.30;;;17.80;99.90;;;;;;5048453;28;20423;-66
2023/07/16 01:01:11;;;;;;;9.43;3.10;;;17.80;99.90;;;;;;5038157;28;20426;-65
2023/07/16 01:03:37;;;;;;;8.13;3.17;;;17.70;99.90;;;;;;5033608;28;20967;-65
2023/07/16 01:06:34;;;;;;;9.27;3.17;;;17.70;99.90;;;;;;5044749;28;20552;-65
2023/07/16 01:09:18;;;;;;;10.40;3.70;;;17.70;99.90;;;;;;5051679;28;20836;-62
2023/07/16 01:11:46;;;;;;;9.65;3.70;;;17.70;99.90;;;;;;4977034;28;20961;-63
2023/07/16 01:14:14;;;;;;;9.85;3.92;;;17.70;99.90;;;;;;5045162;28;20906;-66
2023/07/16 01:16:41;;;;;;;12.25;3.80;;;17.70;99.90;;;;;;5052378;28;20904;-63
2023/07/16 01:19:06;;;;;;;11.07;3.37;;;17.70;99.90;;;;;;5043281;28;20407;-64
2023/07/16 01:21:56;;;;;;;9.00;3.63;;;17.60;99.90;;;;;;5047463;28;20406;-63
2023/07/16 01:24:40;;;;;;;9.50;3.72;;;17.70;99.90;;;;;;4979420;28;20416;-64
2023/07/16 01:27:27;;;;;;;9.77;3.40;;;17.60;99.90;;;;;;5040543;28;20469;-65
2023/07/16 01:30:03;;;;;;;10.25;3.70;;;17.60;99.90;;;;;;5042089;28;20497;-64
2023/07/16 01:32:31;;;;;;;9.70;3.95;;;17.60;99.90;;;;;;5025269;28;20408;-63
2023/07/16 01:34:57;;;;;;;7.93;3.90;;;17.60;99.90;;;;;;5043356;28;20401;-65
2023/07/16 01:37:23;;;;;;;8.70;3.60;;;17.60;99.90;;;;;;5019873;28;20436;-63
2023/07/16 01:39:49;;;;;;;11.13;3.65;;;17.50;99.90;;;;;;5038656;28;20945;-64
2023/07/16 01:42:15;;;;;;;9.57;3.80;;;17.50;99.90;;;;;;5051195;28;20438;-66
2023/07/16 01:44:40;;;;;;;10.60;3.70;;;17.50;99.90;;;;;;5050610;28;20521;-67
2023/07/16 01:47:43;;;;;;;10.43;3.85;;;17.50;99.90;;;;;;4979194;28;20430;-63
2023/07/16 01:50:08;;;;;;;11.35;4.28;;;17.60;99.90;;;;;;4984542;28;20403;-63
2023/07/16 01:52:34;;;;;;;11.93;4.43;;;17.60;99.90;;;;;;5046762;28;20435;-63
2023/07/16 01:55:00;;;;;;;9.83;4.10;;;17.60;99.90;;;;;;4985444;28;20501;-63
2023/07/16 01:57:25;;;;;;;10.98;4.35;;;17.60;99.90;;;;;;5040643;28;20415;-64
2023/07/16 01:59:51;;;;;;;9.77;4.13;;;17.60;99.90;;;;;;4992056;28;20417;-66
2023/07/16 02:02:16;;;;;;;11.27;4.30;;;17.70;99.90;;;;;;5056234;28;20480;-65
2023/07/16 02:04:42;;;;;;;8.40;4.00;;;17.60;99.90;;;;;;5005367;28;20899;-63
2023/07/16 02:07:08;;;;;;;11.55;4.60;;;17.60;99.90;;;;;;4991989;28;20524;-63
2023/07/16 02:09:35;;;;;;;8.40;4.03;;;17.60;99.90;;;;;;5066179;28;20435;-66
2023/07/16 02:12:00;;;;;;;9.38;3.88;;;17.60;99.90;;;;;;5062052;28;20904;-63
2023/07/16 02:14:26;;;;;;;9.25;3.97;;;17.60;99.90;;;;;;4987687;28;20408;-64
2023/07/16 02:16:52;;;;;;;10.50;3.90;;;17.60;99.90;;;;;;5009098;28;20442;-65
2023/07/16 02:19:17;;;;;;;11.33;4.10;;;17.60;99.90;;;;;;4981921;28;21199;-63
2023/07/16 02:21:43;;;;;;;9.65;3.92;;;17.60;99.90;;;;;;5053386;28;20426;-63
2023/07/16 02:24:08;;;;;;;10.68;3.80;;;17.50;99.90;;;;;;5053468;28;20446;-63
2023/07/16 02:26:34;;;;;;;11.27;4.20;;;17.50;99.90;;;;;;4983489;28;20827;-64
2023/07/16 02:29:00;;;;;;;11.50;3.80;;;17.60;99.90;;;;;;4981154;28;20412;-67
2023/07/16 02:31:25;;;;;;;9.10;3.83;;;17.50;99.90;;;;;;4982856;28;20560;-63
2023/07/16 02:33:51;;;;;;;10.95;3.92;;;17.40;99.90;;;;;;5055467;28;20413;-62
2023/07/16 02:36:17;;;;;;;9.57;3.83;;;17.50;99.90;;;;;;4985415;28;20421;-63
2023/07/16 02:38:42;;;;;;;10.17;3.80;;;17.40;99.90;;;;;;4979166;28;20423;-66
2023/07/16 02:41:08;;;;;;;11.93;4.23;;;17.40;99.90;;;;;;4977175;28;20414;-62
2023/07/16 02:43:33;;;;;;;10.80;4.40;;;17.40;99.90;;;;;;5053328;28;21166;-63
2023/07/16 02:45:59;;;;;;;13.05;4.60;;;17.40;99.90;;;;;;4988442;28;20505;-62
2023/07/16 02:48:25;;;;;;;12.70;4.35;;;17.40;99.90;;;;;;5060457;28;20424;-65
2023/07/16 02:50:50;;;;;;;10.33;4.50;;;17.40;99.90;;;;;;4986928;28;20464;-67
2023/07/16 02:53:16;;;;;;;12.40;4.57;;;17.30;99.90;;;;;;5054510;28;20972;-62
2023/07/16 02:55:41;;;;;;;10.25;4.60;;;17.30;99.90;;;;;;4974973;28;20447;-62
2023/07/16 02:58:07;;;;;;;13.85;5.03;;;17.30;99.90;;;;;;4988561;28;20433;-62
2023/07/16 03:00:34;;;;;;;13.05;4.78;;;17.30;99.90;;;;;;5059720;28;20463;-64
2023/07/16 03:03:00;;;;;;;10.63;4.40;;;17.30;99.90;;;;;;5053783;28;20410;-63
2023/07/16 03:05:27;;;;;;;12.60;4.82;;;17.20;99.90;;;;;;5052619;28;20474;-63
2023/07/16 03:07:53;;;;;;;12.73;4.65;;;17.20;99.90;;;;;;4975492;28;20474;-62
2023/07/16 03:10:19;;;;;;;11.70;4.45;;;17.20;99.90;;;;;;4978960;28;20437;-60
2023/07/16 03:12:45;;;;;;;13.57;4.80;;;17.20;99.90;;;;;;4988460;28;20497;-65
2023/07/16 03:15:10;;;;;;;11.03;4.90;;;17.20;99.90;;;;;;5044208;28;20510;-62
2023/07/16 03:17:36;;;;;;;10.43;4.73;;;17.20;99.90;;;;;;5055339;28;20417;-60
2023/07/16 03:20:04;;;;;;;12.90;4.55;;;17.20;99.90;;;;;;4983439;28;20457;-60
2023/07/16 03:22:29;;;;;;;12.10;4.53;;;17.20;99.90;;;;;;4984784;28;20401;-62
2023/07/16 03:24:55;;;;;;;11.73;4.50;;;17.20;99.90;;;;;;4987926;28;20418;-65
2023/07/16 03:27:21;;;;;;;11.43;4.83;;;17.10;99.90;;;;;;4992151;28;20518;-60
2023/07/16 03:29:46;;;;;;;10.33;4.57;;;17.10;99.90;;;;;;4986386;28;20399;-61
2023/07/16 03:32:12;;;;;;;11.83;4.77;;;17.10;99.90;;;;;;5039083;28;20486;-61
2023/07/16 03:34:37;;;;;;;11.70;5.30;;;17.10;99.90;;;;;;4980910;28;20908;-65
2023/07/16 03:37:03;;;;;;;11.40;4.63;;;17.10;99.90;;;;;;5009234;28;20449;-61
2023/07/16 03:39:29;;;;;;;11.67;4.80;;;17.10;99.90;;;;;;4988439;28;20406;-62
2023/07/16 03:41:54;;;;;;;12.63;4.77;;;17.10;99.90;;;;;;5064483;28;20413;-62
2023/07/16 03:44:20;;;;;;;14.63;5.07;;;17.10;99.90;;;;;;4982558;28;20434;-65
2023/07/16 03:46:46;;;;;;;10.38;4.68;;;17.10;99.90;;;;;;4988693;28;20456;-63
2023/07/16 03:49:12;;;;;;;12.30;4.78;;;17.10;99.90;;;;;;4984718;28;20516;-63
2023/07/16 03:51:37;;;;;;;12.15;4.78;;;17.10;99.90;;;;;;5068482;28;20421;-63
2023/07/16 03:54:03;;;;;;;11.55;4.95;;;17.30;99.90;;;;;;4998339;28;20485;-63
2023/07/16 03:56:29;;;;;;;11.70;4.88;;;17.00;99.90;;;;;;4988089;28;20415;-63
2023/07/16 03:58:54;;;;;;;13.40;4.63;;;17.00;99.90;;;;;;4998674;28;20403;-64
2023/07/16 04:01:20;;;;;;;12.57;5.03;;;17.00;99.90;;;;;;5045484;28;20800;-65
2023/07/16 04:03:45;;;;;;;10.93;4.75;;;17.00;99.90;;;;;;5050374;28;20446;-62
2023/07/16 04:06:12;;;;;;;9.95;4.80;;;17.00;99.90;;;;;;5073226;28;20451;-62
2023/07/16 04:08:38;;;;;;;11.95;5.03;;;17.00;99.90;;;;;;5012401;23;20442;-66
2023/07/16 04:11:05;;;;;;;12.77;4.97;;;16.90;99.90;;;;;;5001235;28;20434;-66
2023/07/16 04:13:31;;;;;;;12.53;5.10;;;17.00;99.90;;;;;;4985144;28;20423;-64
2023/07/16 04:15:57;;;;;;;17.00;5.03;;;16.90;99.90;;;;;;4984645;28;20476;-66
2023/07/16 04:18:24;;;;;;;13.13;4.63;;;17.00;99.90;;;;;;4979755;28;20517;-66
2023/07/16 04:20:50;;;;;;;11.98;5.25;;;16.90;99.90;;;;;;4977219;28;20769;-66
2023/07/16 04:23:19;;;;;;;11.13;4.60;;;16.90;99.90;;;;;;4965138;28;20406;-64
2023/07/16 04:25:45;;;;;;;11.80;4.47;;;16.90;99.90;;;;;;4987516;28;20444;-66
2023/07/16 04:28:11;;;;;;;12.57;4.65;;;16.90;99.90;;;;;;4982244;28;20396;-65
2023/07/16 04:30:37;;;;;;;12.70;4.82;;;16.90;99.90;;;;;;4984903;28;20403;-65
2023/07/16 04:33:06;;;;;;;13.77;4.93;;;16.90;99.90;;;;;;4984089;28;20422;-65
2023/07/16 04:35:33;;;;;;;13.00;4.85;;;16.90;99.90;;;;;;4984401;28;20475;-66
2023/07/16 04:37:59;;;;;;;10.33;4.53;;;16.90;99.90;;;;;;4983862;28;20427;-67
2023/07/16 04:40:24;;;;;;;11.53;5.00;;;16.90;99.90;;;;;;4987706;28;20456;-66
2023/07/16 04:42:50;;;;;;;12.00;4.63;;;16.90;99.90;;;;;;4985893;28;20458;-66
2023/07/16 04:45:17;;;;;;;10.80;4.50;;;16.90;99.90;;;;;;4985774;28;20414;-64
2023/07/16 04:47:42;;;;;;;11.20;4.47;;;17.00;99.90;;;;;;4987327;28;20485;-66
2023/07/16 04:50:08;;;;;;;11.23;4.30;;;17.00;99.90;;;;;;4985933;28;20497;-66
2023/07/16 04:52:34;;;;;;;11.32;4.53;;;17.00;99.90;;;;;;4987361;28;20888;-65
2023/07/16 04:55:00;;;;;;;13.37;4.67;;;17.00;99.90;;;;;;4988244;28;20407;-63
2023/07/16 04:57:25;;;;;;;10.05;4.18;;;17.00;99.90;;;;;;4984619;28;20418;-63
2023/07/16 04:59:52;;;;;;;12.73;4.70;;;17.00;99.90;;;;;;4986616;28;20430;-63
2023/07/16 05:02:17;;;;;;;14.77;4.50;;;17.00;99.90;;;;;;4980389;28;20419;-64
2023/07/16 05:04:47;;;;;;;14.65;4.70;;;17.00;99.90;;;;;;4957782;28;20435;-63
2023/07/16 05:07:14;;;;;;;10.10;4.40;;;17.00;99.90;;;;;;4975713;28;20477;-64
2023/07/16 05:09:39;;;;;;;11.90;4.78;;;17.00;99.90;;;;;;4981895;28;20422;-64
2023/07/16 05:12:05;;;;;;;15.27;5.10;;;17.10;99.90;;;;;;4985979;28;20454;-63
2023/07/16 05:14:31;;;;;;;12.13;4.43;;;17.10;99.90;;;;;;4983210;28;20399;-63
2023/07/16 05:16:57;;;;;;;10.23;4.20;;;17.10;99.90;;;;;;4986303;28;20455;-64
2023/07/16 05:19:23;;;;;;;14.87;4.33;;;17.10;99.90;;;;;;4981195;28;20563;-63
2023/07/16 05:21:48;;;;;;;11.73;4.43;;;17.10;99.90;;;;;;4980110;28;20402;-65
2023/07/16 05:24:14;;;;;;;11.23;4.50;;;17.10;99.90;;;;;;4985229;28;20441;-63
2023/07/16 05:26:39;;;;;;;11.63;4.38;;;17.20;99.90;;;;;;4980754;28;20423;-63
2023/07/16 05:29:05;;;;;;;10.00;4.50;;;17.20;99.90;;;;;;4980255;28;20399;-64
2023/07/16 05:31:31;;;;;;;11.07;4.93;;;17.30;99.90;;;;;;4986691;28;20449;-67
2023/07/16 05:33:56;;;;;;;10.53;4.40;;;17.30;99.90;;;;;;4983318;28;20446;-63
2023/07/16 05:36:22;;;;;;;12.15;4.70;;;17.30;99.90;;;;;;4986551;28;20418;-63
2023/07/16 05:38:47;;;;;;;12.15;4.88;;;17.20;99.90;;;;;;4986916;28;20403;-64
2023/07/16 05:41:13;;;;;;;11.43;4.40;;;17.30;99.90;;;;;;4965331;28;20430;-68
2023/07/16 05:43:39;;;;;;;11.23;4.73;;;17.30;99.90;;;;;;4985993;28;20402;-63
2023/07/16 05:46:05;;;;;;;15.18;5.20;;;17.30;99.90;;;;;;4968658;28;20438;-63
2023/07/16 05:48:31;;;;;;;13.60;5.07;;;17.40;99.90;;;;;;4986715;28;20448;-64
2023/07/16 05:50:57;;;;;;;12.73;5.00;;;17.40;99.90;;;;;;4987027;28;20403;-63
2023/07/16 05:53:22;;;;;;;10.53;4.90;;;17.50;99.90;;;;;;4985674;28;20781;-64
2023/07/16 05:55:49;;;;;;;10.33;4.90;;;17.50;99.90;;;;;;4985216;28;20689;-63
2023/07/16 05:58:16;;;;;;;10.82;5.05;;;17.50;99.90;;;;;;4984448;28;20418;-64
2023/07/16 06:00:41;;;;;;;11.50;5.05;;;17.50;99.90;;;;;;4967992;28;20523;-63
2023/07/16 06:03:07;;;;;;;10.27;4.80;;;17.50;99.90;;;;;;4986063;28;20945;-63
2023/07/16 06:05:34;;;;;;;11.10;5.20;;;17.60;99.90;;;;;;4967856;28;21007;-63
2023/07/16 06:08:00;;;;;;;14.23;5.45;;;17.60;99.90;;;;;;4968271;28;20453;-66
2023/07/16 06:10:26;;;;;;;13.98;5.25;;;17.60;99.90;;;;;;4968817;28;20414;-65
2023/07/16 06:12:52;;;;;;;10.87;4.87;;;17.70;99.90;;;;;;4984248;28;20492;-67
2023/07/16 06:15:17;;;;;;;10.50;4.70;;;17.70;99.90;;;;;;4967968;28;20418;-65
2023/07/16 06:17:43;;;;;;;12.73;5.50;;;17.70;99.90;;;;;;4983307;28;20451;-63
2023/07/16 06:20:09;;;;;;;11.33;4.93;;;17.70;99.90;;;;;;4985774;28;20406;-63
2023/07/16 06:22:35;;;;;;;12.43;5.40;;;17.80;99.90;;;;;;4963440;28;20436;-64
2023/07/16 06:25:01;;;;;;;8.55;4.78;;;17.80;99.90;;;;;;4974271;28;20434;-65
2023/07/16 06:27:26;;;;;;;12.50;5.32;;;17.90;99.90;;;;;;4966078;28;20431;-66
2023/07/16 06:29:52;;;;;;;12.90;5.00;;;17.90;99.90;;;;;;4962972;28;20469;-66
2023/07/16 06:32:18;;;;;;;15.70;5.87;;;17.90;99.90;;;;;;4982913;28;20483;-64
2023/07/16 06:34:44;;;;;;;11.33;5.40;;;17.90;99.90;;;;;;4984736;28;20407;-64
2023/07/16 06:37:09;;;;;;;10.80;5.47;;;18.00;99.90;;;;;;4965308;28;20921;-64
2023/07/16 06:39:35;;;;;;;12.60;5.07;;;18.00;99.90;;;;;;4982298;28;20544;-65
2023/07/16 06:42:00;;;;;;;11.57;5.20;;;18.00;99.90;;;;;;4983893;28;20407;-67
2023/07/16 06:44:26;;;;;;;11.50;5.15;;;18.10;99.90;;;;;;4963070;28;20668;-63
2023/07/16 06:46:52;;;;;;;8.43;5.00;;;18.10;99.90;;;;;;4985756;28;20796;-64
2023/07/16 06:49:18;;;;;;;13.20;5.50;;;18.20;99.90;;;;;;4982088;28;20434;-64
2023/07/16 06:51:43;;;;;;;14.00;5.30;;;18.20;99.90;;;;;;4985378;28;20431;-64
2023/07/16 06:54:09;;;;;;;13.60;5.40;;;18.30;99.90;;;;;;4984639;28;20423;-66
2023/07/16 06:56:35;;;;;;;11.50;5.40;;;18.30;99.90;;;;;;4987832;28;20418;-65
2023/07/16 06:59:00;;;;;;;11.43;5.38;;;18.30;99.90;;;;;;4986278;28;20418;-64
2023/07/16 07:01:27;;;;;;;11.63;5.30;;;18.30;99.90;;;;;;4988941;28;20406;-64
2023/07/16 07:03:53;;;;;;;11.82;5.43;;;18.40;99.90;;;;;;4985648;28;20816;-64
2023/07/16 07:06:19;;;;;;;10.23;5.18;;;18.40;99.90;;;;;;4965430;28;20993;-64
2023/07/16 07:08:47;;;;;;;11.63;5.47;;;18.40;99.90;;;;;;4981414;28;20538;-64
2023/07/16 07:11:12;;;;;;;10.65;5.25;;;18.50;99.90;;;;;;4985793;28;20505;-64
2023/07/16 07:13:38;;;;;;;12.43;5.57;;;18.50;99.90;;;;;;4966211;28;20452;-64
2023/07/16 07:16:04;;;;;;;11.23;5.47;;;18.40;99.90;;;;;;4984375;28;20399;-66
2023/07/16 07:18:29;;;;;;;11.93;5.13;;;18.60;99.90;;;;;;4959836;28;20472;-67
2023/07/16 07:20:55;;;;;;;12.73;5.50;;;18.60;99.90;;;;;;4986799;28;20851;-64
2023/07/16 07:23:21;;;;;;;12.77;5.60;;;18.60;99.90;;;;;;4985578;28;20426;-64
2023/07/16 07:25:51;;;;;;;11.77;5.30;;;18.70;99.90;;;;;;4987046;28;20951;-64
2023/07/16 07:28:17;;;;;;;10.02;5.10;;;18.80;99.90;;;;;;4965180;28;20416;-65
2023/07/16 07:30:44;;;;;;;10.93;5.00;;;18.70;99.90;;;;;;4971586;28;20415;-64
2023/07/16 07:33:09;;;;;;;11.63;5.43;;;18.80;99.90;;;;;;4959327;28;20422;-64
2023/07/16 07:35:35;;;;;;;11.65;5.30;;;18.90;99.90;;;;;;4963447;28;20464;-65
2023/07/16 07:38:00;;;;;;;11.23;5.17;;;18.90;99.90;;;;;;4963683;28;20477;-65
2023/07/16 07:40:26;;;;;;;11.03;4.87;;;19.00;99.90;;;;;;4964942;28;20490;-69
2023/07/16 07:42:52;;;;;;;10.85;5.43;;;18.90;99.90;;;;;;4983973;28;20892;-64
2023/07/16 07:45:18;;;;;;;10.50;5.13;;;19.00;99.90;;;;;;4987024;28;20425;-64
2023/07/16 07:47:44;;;;;;;12.95;5.18;;;19.00;99.90;;;;;;4988206;28;20422;-64
2023/07/16 07:50:09;;;;;;;11.20;5.13;;;19.10;99.90;;;;;;4982115;28;20450;-64
2023/07/16 07:52:35;;;;;;;10.35;5.53;;;19.20;99.90;;;;;;4988316;28;20887;-65
2023/07/16 07:55:01;;;;;;;15.73;5.27;;;19.30;99.90;;;;;;4985624;28;20892;-67
2023/07/16 07:57:26;;;;;;;8.73;4.90;;;19.30;99.90;;;;;;4988104;28;20403;-64
2023/07/16 07:59:56;;;;;;;12.17;5.30;;;19.40;99.70;;;;;;4968795;28;20462;-64
2023/07/16 08:02:23;;;;;;;11.18;5.05;;;19.40;99.40;;;;;;4983001;28;20490;-64
2023/07/16 08:04:53;;;;;;;10.27;5.07;;;19.50;99.20;;;;;;4969947;28;20410;-67
2023/07/16 08:07:18;;;;;;;13.32;4.93;;;19.50;99.50;;;;;;4987678;28;20568;-64
2023/07/16 08:09:45;;;;;;;10.27;5.22;;;19.60;99.20;;;;;;4986920;28;20537;-64
2023/07/16 08:12:11;;;;;;;13.10;5.03;;;19.70;98.90;;;;;;4986175;28;20703;-64
2023/07/16 08:14:36;;;;;;;12.37;5.17;;;19.70;99.00;;;;;;4988244;28;20746;-64
2023/07/16 08:17:02;;;;;;;11.50;5.22;;;19.80;98.70;;;;;;5006929;28;20409;-64
2023/07/16 08:19:28;;;;;;;11.88;5.43;;;19.80;98.50;;;;;;4986293;28;20430;-65
2023/07/16 08:21:53;;;;;;;10.47;5.10;;;19.90;98.80;;;;;;4986478;28;20411;-67
2023/07/16 08:24:19;;;;;;;10.93;5.30;;;19.90;97.90;;;;;;4986853;28;20429;-64
2023/07/16 08:26:45;;;;;;;11.48;5.35;;;19.90;97.60;;;;;;4987944;28;20429;-64
2023/07/16 08:29:10;;;;;;;12.77;5.60;;;19.90;97.60;;;;;;4987601;28;20473;-64
2023/07/16 08:31:36;;;;;;;11.47;5.70;;;19.80;97.60;;;;;;4988579;28;20410;-65
2023/07/16 08:34:02;;;;;;;12.50;5.43;;;19.80;97.50;;;;;;4969064;28;20476;-64
2023/07/16 08:36:27;;;;;;;9.75;5.32;;;19.80;97.50;;;;;;4987353;28;20510;-64
2023/07/16 08:38:53;;;;;;;11.88;5.57;;;19.70;97.90;;;;;;4988014;28;20441;-64
2023/07/16 08:41:19;;;;;;;12.60;5.40;;;19.70;97.90;;;;;;4964257;28;20402;-64
2023/07/16 08:43:49;;;;;;;11.05;4.93;;;19.70;97.80;;;;;;4969927;28;20414;-65
2023/07/16 08:46:15;;;;;;;11.00;5.55;;;19.70;97.80;;;;;;4968336;28;20441;-64
2023/07/16 08:48:41;;;;;;;11.15;5.45;;;19.70;98.00;;;;;;4981389;28;20406;-64
2023/07/16 08:51:09;;;;;;;11.55;5.65;;;19.80;98.00;;;;;;4983234;28;20468;-64
2023/07/16 08:53:34;;;;;;;11.20;5.38;;;19.90;97.70;;;;;;4978150;28;20900;-68
2023/07/16 08:56:02;;;;;;;11.57;5.60;;;20.00;97.60;;;;;;4974977;28;20478;-64
2023/07/16 08:58:29;;;;;;;11.20;5.30;;;20.00;97.90;;;;;;4957070;28;20446;-64
2023/07/16 09:01:00;;;;;;;13.20;5.28;;;20.20;97.50;;;;;;4979089;28;20422;-68
2023/07/16 09:03:26;;;;;;;10.68;5.60;;;20.40;97.10;;;;;;4957232;28;20489;-64
2023/07/16 09:05:54;;;;;;;11.50;5.53;;;20.50;97.00;;;;;;4979349;28;20435;-64
2023/07/16 09:08:19;;;;;;;9.85;5.20;;;20.60;97.10;;;;;;4977216;28;20419;-65
2023/07/16 09:10:54;;;;;;;10.15;4.90;;;20.60;96.70;;;;;;4973861;28;20427;-69
2023/07/16 09:13:19;;;;;;;9.50;4.85;;;20.60;96.60;;;;;;4980486;28;20490;-66
2023/07/16 09:15:54;;;;;;;11.20;5.07;;;20.50;96.90;;;;;;4980001;28;20486;-67
2023/07/16 09:18:25;;;;;;;10.10;5.38;;;20.50;97.10;;;;;;4981037;28;20394;-64
2023/07/16 09:21:05;;;;;;;12.63;5.50;;;20.40;96.70;;;;;;4978476;28;20411;-64
2023/07/16 09:23:33;;;;;;;9.97;5.20;;;20.30;97.20;;;;;;4976982;28;20496;-68
2023/07/16 09:25:59;;;;;;;10.93;5.32;;;20.30;97.30;;;;;;4969250;28;20965;-64
2023/07/16 09:28:25;;;;;;;9.93;5.10;;;20.20;97.30;;;;;;4979932;28;20422;-63
2023/07/16 09:30:52;;;;;;;9.55;5.30;;;20.20;97.30;;;;;;4980739;28;20395;-63
2023/07/16 09:33:20;;;;;;;14.40;5.43;;;20.10;97.40;;;;;;4984059;28;21017;-67
2023/07/16 09:35:48;;;;;;;10.65;5.30;;;20.10;97.10;;;;;;4982662;28;20402;-68
2023/07/16 09:38:15;;;;;;;9.82;5.10;;;20.10;97.00;;;;;;4959144;28;20914;-64
2023/07/16 09:40:42;;;;;;;11.90;5.28;;;20.10;97.00;;;;;;4978774;28;20504;-63
2023/07/16 09:43:09;;;;;;;9.55;4.70;;;20.20;97.10;;;;;;4979401;28;20803;-67
2023/07/16 09:45:35;;;;;;;9.73;5.18;;;20.40;97.30;;;;;;4982286;28;20406;-63
2023/07/16 09:48:02;;;;;;;9.70;5.05;;;20.60;97.00;;;;;;4982063;28;20408;-63
2023/07/16 09:50:32;;;;;;;10.75;5.30;;;20.70;96.80;;;;;;4963374;28;20497;-62
2023/07/16 09:52:58;;;;;;;9.27;4.90;;;20.70;96.40;;;;;;4963502;28;20403;-62
2023/07/16 09:55:24;;;;;;;11.90;5.32;;;20.60;96.40;;;;;;4982208;28;20421;-63
2023/07/16 09:57:56;;;;;;;10.88;5.50;;;20.60;96.60;;;;;;4982142;28;20713;-63
2023/07/16 10:00:23;;;;;;;13.77;6.00;;;20.60;96.40;;;;;;4964211;28;20517;-62
2023/07/16 10:02:51;;;;;;;11.38;5.20;;;20.50;97.00;;;;;;4961805;28;20505;-66
2023/07/16 10:05:28;;;;;;;11.75;5.20;;;20.50;96.50;;;;;;4964410;28;20412;-64
2023/07/16 10:07:59;;;;;;;12.52;5.00;;;20.50;96.80;;;;;;4951816;28;20476;-63
2023/07/16 10:10:51;;;;;;;8.90;5.05;;;20.50;97.20;;;;;;4993640;22;20454;-66
2023/07/16 10:13:17;;;;;;;11.38;5.70;;;20.50;96.90;;;;;;4980410;28;20503;-64
2023/07/16 10:15:56;;;;;;;11.25;5.70;;;20.50;96.90;;;;;;4963925;28;20433;-65
2023/07/16 10:18:27;;;;;;;12.67;5.30;;;20.40;97.10;;;;;;4976453;28;20430;-64
2023/07/16 10:20:53;;;;;;;9.88;5.38;;;20.30;97.40;;;;;;4963285;28;20874;-66
2023/07/16 10:23:19;;;;;;;9.43;5.40;;;20.20;97.40;;;;;;4957571;28;21050;-67
2023/07/16 10:26:07;;;;;;;11.25;5.53;;;20.20;97.50;;;;;;4982027;28;20450;-63
2023/07/16 10:28:33;;;;;;;10.57;5.78;;;20.10;97.40;;;;;;4989077;28;21142;-65
2023/07/16 10:30:59;;;;;;;11.57;5.70;;;20.10;97.70;;;;;;4963592;28;20404;-65
2023/07/16 10:33:25;;;;;;;13.27;5.30;;;20.00;98.40;;;;;;4969594;28;20457;-65
2023/07/16 10:35:51;;;;;;;10.83;5.17;;;20.10;98.60;;;;;;4964122;28;20434;-65
2023/07/16 10:38:17;;;;;;;9.37;4.97;;;20.10;97.90;;;;;;4955956;28;20443;-64
2023/07/16 10:40:46;;;;;;;10.07;5.65;;;20.10;97.90;;;;;;4950655;28;20467;-65
2023/07/16 10:43:12;;;;;;;9.98;5.10;;;20.20;98.00;;;;;;4967490;28;20485;-62
2023/07/16 10:45:39;;;;;;;9.50;5.10;;;20.40;97.30;;;;;;4968282;28;20419;-62
2023/07/16 10:48:05;;;;;;;13.82;5.40;;;20.50;97.60;;;;;;4969557;28;20516;-62
2023/07/16 10:50:34;;;;;;;10.60;5.37;;;20.70;99.00;;;;;;4952215;28;20466;-62
2023/07/16 10:53:00;;;;;;;11.20;5.38;;;21.00;98.40;;;;;;4964703;28;20420;-62
2023/07/16 10:55:28;;;;;;;10.70;5.45;;;21.40;98.10;;;;;;4975551;28;20425;-64
2023/07/16 10:57:53;;;;;;;10.75;5.70;;;21.60;96.90;;;;;;4966932;28;20504;-64
2023/07/16 11:00:21;;;;;;;13.45;5.38;;;21.70;96.00;;;;;;4979161;28;20485;-64
2023/07/16 11:02:49;;;;;;;10.43;5.55;;;21.60;96.00;;;;;;4961122;28;20425;-64
2023/07/16 11:05:15;;;;;;;9.85;5.47;;;21.50;95.70;;;;;;4968407;28;20413;-65
2023/07/16 11:07:45;;;;;;;10.43;5.10;;;21.50;96.50;;;;;;4966425;28;21007;-64
2023/07/16 11:10:11;;;;;;;11.63;5.50;;;21.70;96.80;;;;;;4958720;28;20424;-65
2023/07/16 11:12:37;;;;;;;9.50;5.70;;;21.90;96.10;;;;;;4963040;28;20487;-65
2023/07/16 11:15:03;;;;;;;10.23;5.47;;;22.10;95.50;;;;;;4963563;28;20418;-65
2023/07/16 11:17:28;;;;;;;10.23;5.32;;;22.20;94.80;;;;;;4965879;28;20459;-65
2023/07/16 11:19:55;;;;;;;8.43;5.45;;;22.20;94.90;;;;;;4966941;28;20436;-65
2023/07/16 11:22:26;;;;;;;10.43;4.88;;;22.20;94.70;;;;;;4962060;28;20469;-65
2023/07/16 11:24:53;;;;;;;11.40;5.28;;;22.10;93.60;;;;;;4956132;28;21081;-65
2023/07/16 11:27:26;;;;;;;10.80;5.25;;;21.90;93.60;;;;;;4965750;28;20495;-65
2023/07/16 11:29:56;;;;;;;9.90;5.07;;;21.70;93.30;;;;;;4951577;28;20406;-65
2023/07/16 11:32:42;;;;;;;9.38;5.40;;;21.50;93.90;;;;;;4955585;28;20402;-65
2023/07/16 11:35:08;;;;;;;10.10;5.10;;;21.30;94.50;;;;;;4952927;28;20935;-65
2023/07/16 11:37:36;;;;;;;9.20;5.03;;;21.20;95.40;;;;;;4954381;28;20491;-65
2023/07/16 11:40:04;;;;;;;10.02;5.40;;;21.20;95.60;;;;;;4962617;28;20412;-65
2023/07/16 11:42:35;;;;;;;10.80;5.15;;;21.00;96.00;;;;;;4956153;28;20418;-65
2023/07/16 11:45:01;;;;;;;10.50;5.00;;;21.10;96.10;;;;;;4962088;28;20420;-65
2023/07/16 11:47:27;;;;;;;9.07;5.00;;;21.20;96.40;;;;;;4960072;28;20503;-63
2023/07/16 11:49:53;;;;;;;9.70;5.23;;;21.30;96.10;;;;;;4960097;28;20509;-62
2023/07/16 11:52:30;;;;;;;10.13;5.20;;;21.40;95.70;;;;;;4961126;28;20426;-62
2023/07/16 11:55:00;;;;;;;9.63;5.20;;;21.40;95.40;;;;;;4961364;28;20408;-62
2023/07/16 11:57:26;;;;;;;10.95;5.80;;;21.40;95.50;;;;;;4956100;28;20412;-62
2023/07/16 11:59:52;;;;;;;10.65;5.20;;;21.40;96.30;;;;;;4961730;28;20533;-62
2023/07/16 12:02:18;;;;;;;11.53;5.77;;;21.60;96.60;;;;;;4956256;28;20918;-62
2023/07/16 12:04:44;;;;;;;10.33;5.10;;;21.70;96.00;;;;;;4954486;28;20808;-62
2023/07/16 12:07:09;;;;;;;10.97;5.30;;;21.70;96.00;;;;;;4957359;28;20432;-62
2023/07/16 12:09:35;;;;;;;10.25;5.18;;;21.70;95.40;;;;;;4965741;28;20428;-62
2023/07/16 12:12:01;;;;;;;10.05;5.25;;;21.60;95.20;;;;;;4957107;28;20440;-62
2023/07/16 12:14:27;;;;;;;11.15;5.57;;;21.50;95.10;;;;;;4958947;28;20901;-63
2023/07/16 12:16:52;;;;;;;11.10;5.57;;;21.40;95.20;;;;;;4956827;28;20410;-62
2023/07/16 12:19:18;;;;;;;11.93;5.63;;;21.30;95.10;;;;;;4953831;28;20433;-62
2023/07/16 12:21:44;;;;;;;8.68;5.15;;;21.30;95.10;;;;;;4958273;28;20499;-62
2023/07/16 12:24:10;;;;;;;12.15;5.40;;;21.30;95.30;;;;;;4956125;28;20488;-62
2023/07/16 12:26:36;;;;;;;9.75;5.40;;;21.60;96.30;;;;;;4954647;28;20513;-62
2023/07/16 12:29:03;;;;;;;11.80;5.50;;;21.90;96.20;;;;;;4954479;28;21057;-62
2023/07/16 12:31:31;;;;;;;8.60;4.82;;;22.30;96.20;;;;;;4957575;28;20904;-62
2023/07/16 12:33:57;;;;;;;11.05;4.90;;;22.50;94.80;;;;;;4951660;28;20750;-62
2023/07/16 12:36:23;;;;;;;9.98;5.00;;;22.50;94.50;;;;;;4958773;28;20569;-62